createdAt,value
2017-12-03T00:00:21.930Z,84.20
2017-12-03T00:02:50.228Z,85.20
2017-12-03T00:05:17.730Z,85.20
2017-12-03T00:07:45.259Z,85.00
2017-12-03T00:10:12.764Z,85.00
2017-12-03T00:12:40.291Z,85.20
2017-12-03T00:15:07.790Z,83.60
2017-12-03T00:17:36.089Z,83.90
2017-12-03T00:20:03.590Z,83.80
2017-12-03T00:22:31.116Z,84.20
2017-12-03T00:24:58.618Z,83.70
2017-12-03T00:27:26.145Z,82.40
2017-12-03T00:29:53.652Z,83.20
2017-12-03T00:32:21.927Z,82.80
2017-12-03T00:34:49.451Z,82.70
2017-12-03T00:37:16.950Z,82.30
2017-12-03T00:39:45.245Z,79.10
2017-12-03T00:42:12.750Z,79.10
2017-12-03T00:44:40.271Z,79.80
2017-12-03T00:47:07.778Z,79.50
2017-12-03T00:49:35.303Z,78.30
2017-12-03T00:52:02.807Z,78.00
2017-12-03T00:54:30.311Z,76.40
2017-12-03T00:56:57.844Z,75.30
2017-12-03T00:59:26.119Z,72.90
2017-12-03T01:01:54.420Z,73.60
2017-12-03T01:04:21.922Z,74.20
2017-12-03T01:06:49.447Z,73.40
2017-12-03T01:09:16.955Z,73.70
2017-12-03T01:11:44.464Z,73.90
2017-12-03T01:14:11.996Z,73.80
2017-12-03T01:16:40.271Z,75.20
2017-12-03T01:19:08.567Z,73.70
2017-12-03T01:21:36.075Z,73.70
2017-12-03T01:24:03.603Z,73.40
2017-12-03T01:26:31.107Z,73.70
2017-12-03T01:28:58.634Z,74.20
2017-12-03T01:31:26.143Z,74.30
2017-12-03T01:33:54.410Z,75.80
2017-12-03T01:36:22.711Z,75.30
2017-12-03T01:38:50.219Z,75.20
2017-12-03T01:41:17.746Z,75.20
2017-12-03T01:43:45.247Z,74.60
2017-12-03T01:46:12.779Z,73.60
2017-12-03T01:48:40.283Z,74.30
2017-12-03T01:51:08.579Z,75.90
2017-12-03T01:53:36.084Z,75.90
2017-12-03T01:56:03.582Z,74.20
2017-12-03T01:58:31.871Z,73.50
2017-12-03T02:00:59.383Z,73.50
2017-12-03T02:03:26.907Z,72.90
2017-12-03T02:05:54.415Z,72.40
2017-12-03T02:08:22.711Z,73.30
2017-12-03T02:10:50.978Z,73.20
2017-12-03T02:13:18.531Z,73.20
2017-12-03T02:15:46.794Z,73.90
2017-12-03T02:18:14.297Z,73.90
2017-12-03T02:20:41.827Z,73.90
2017-12-03T02:23:10.095Z,72.00
2017-12-03T02:25:37.622Z,71.90
2017-12-03T02:28:05.134Z,72.10
2017-12-03T02:30:32.667Z,69.80
2017-12-03T02:33:00.168Z,69.90
2017-12-03T02:35:27.703Z,69.90
2017-12-03T02:37:55.975Z,70.40
2017-12-03T02:40:24.242Z,70.00
2017-12-03T02:42:52.551Z,70.10
2017-12-03T02:45:20.054Z,70.00
2017-12-03T02:47:47.580Z,69.90
2017-12-03T02:50:15.096Z,70.60
2017-12-03T02:52:43.396Z,70.40
2017-12-03T02:55:10.902Z,70.40
2017-12-03T02:57:38.426Z,70.70
2017-12-03T03:00:05.931Z,70.80
2017-12-03T03:02:33.431Z,70.60
2017-12-03T03:05:00.955Z,70.80
2017-12-03T03:07:28.460Z,70.80
2017-12-03T03:09:55.983Z,70.90
2017-12-03T03:12:24.254Z,70.90
2017-12-03T03:14:51.779Z,70.90
2017-12-03T03:17:19.283Z,72.00
2017-12-03T03:19:47.575Z,71.20
2017-12-03T03:22:15.078Z,71.20
2017-12-03T03:24:42.579Z,71.30
2017-12-03T03:27:10.875Z,71.30
2017-12-03T03:29:38.385Z,71.20
2017-12-03T03:32:05.914Z,71.20
2017-12-03T03:34:33.415Z,70.80
2017-12-03T03:37:00.943Z,69.70
2017-12-03T03:39:28.443Z,69.90
2017-12-03T03:41:56.731Z,70.90
2017-12-03T03:44:25.018Z,70.70
2017-12-03T03:46:52.531Z,70.70
2017-12-03T03:49:20.063Z,70.70
2017-12-03T03:51:47.562Z,71.20
2017-12-03T03:54:15.855Z,71.60
2017-12-03T03:56:44.123Z,69.90
2017-12-03T03:59:12.410Z,69.90
2017-12-03T04:01:40.685Z,70.40
2017-12-03T04:04:08.979Z,70.90
2017-12-03T04:06:36.491Z,70.80
2017-12-03T04:09:03.995Z,70.90
2017-12-03T04:11:31.518Z,71.20
2017-12-03T04:13:59.025Z,70.60
2017-12-03T04:16:26.551Z,71.20
2017-12-03T04:18:54.819Z,69.80
2017-12-03T04:21:23.127Z,69.00
2017-12-03T04:23:50.631Z,69.00
2017-12-03T04:26:18.131Z,70.20
2017-12-03T04:28:45.656Z,70.50
2017-12-03T04:31:13.160Z,70.40
2017-12-03T04:33:40.690Z,71.00
2017-12-03T04:36:08.958Z,70.60
2017-12-03T04:38:36.482Z,70.50
2017-12-03T04:41:03.987Z,70.20
2017-12-03T04:43:32.275Z,71.20
2017-12-03T04:46:00.542Z,70.90
2017-12-03T04:48:28.815Z,71.20
2017-12-03T04:50:57.107Z,71.40
2017-12-03T04:53:24.606Z,71.40
2017-12-03T04:55:52.126Z,71.20
2017-12-03T04:58:19.626Z,71.80
2017-12-03T05:00:47.159Z,70.70
2017-12-03T05:03:14.658Z,70.90
2017-12-03T05:05:42.183Z,71.20
2017-12-03T05:08:09.686Z,71.40
2017-12-03T05:10:37.190Z,70.90
2017-12-03T05:13:04.719Z,70.70
2017-12-03T05:15:32.987Z,71.00
2017-12-03T05:18:01.279Z,72.10
2017-12-03T05:20:29.547Z,71.60
2017-12-03T05:22:57.838Z,71.00
2017-12-03T05:25:25.346Z,70.90
2017-12-03T05:27:52.846Z,70.80
2017-12-03T05:30:21.137Z,71.50
2017-12-03T05:32:48.643Z,71.50
2017-12-03T05:35:16.171Z,71.10
2017-12-03T05:37:43.671Z,71.30
2017-12-03T05:40:11.203Z,71.70
2017-12-03T05:42:38.703Z,71.90
2017-12-03T05:45:06.971Z,71.70
2017-12-03T05:47:34.496Z,71.60
2017-12-03T05:50:02.004Z,72.10
2017-12-03T05:52:30.296Z,71.40
2017-12-03T05:54:57.807Z,71.40
2017-12-03T05:57:25.331Z,71.30
2017-12-03T05:59:52.884Z,70.90
2017-12-03T06:02:20.391Z,70.40
2017-12-03T06:04:47.923Z,70.90
2017-12-03T06:07:15.427Z,71.50
2017-12-03T06:09:43.723Z,70.90
2017-12-03T06:12:11.223Z,70.90
2017-12-03T06:14:38.746Z,71.20
2017-12-03T06:17:06.246Z,71.20
2017-12-03T06:19:33.747Z,71.00
2017-12-03T06:22:02.050Z,71.30
2017-12-03T06:24:29.558Z,71.30
2017-12-03T06:26:57.087Z,71.00
2017-12-03T06:29:24.594Z,70.70
2017-12-03T06:31:52.895Z,70.70
2017-12-03T06:34:20.403Z,70.70
2017-12-03T06:36:47.906Z,70.90
2017-12-03T06:39:15.430Z,70.60
2017-12-03T06:41:42.934Z,70.80
2017-12-03T06:44:10.458Z,71.20
2017-12-03T06:46:38.727Z,70.90
2017-12-03T06:49:06.259Z,70.90
2017-12-03T06:51:33.763Z,70.90
2017-12-03T06:54:02.035Z,71.20
2017-12-03T06:56:30.326Z,70.80
2017-12-03T06:58:57.831Z,70.80
2017-12-03T07:01:25.355Z,70.80
2017-12-03T07:03:52.855Z,70.80
2017-12-03T07:06:20.384Z,72.20
2017-12-03T07:08:47.887Z,72.90
2017-12-03T07:11:15.388Z,71.00
2017-12-03T07:13:42.911Z,71.10
2017-12-03T07:16:11.555Z,70.40
2017-12-03T07:18:39.089Z,70.40
2017-12-03T07:21:06.590Z,70.00
2017-12-03T07:23:34.119Z,69.80
2017-12-03T07:26:01.619Z,69.70
2017-12-03T07:28:29.122Z,69.70
2017-12-03T07:30:56.646Z,69.50
2017-12-03T07:33:24.915Z,70.80
2017-12-03T07:35:52.447Z,70.00
2017-12-03T07:38:19.951Z,70.30
2017-12-03T07:40:48.243Z,70.40
2017-12-03T07:43:15.751Z,70.40
2017-12-03T07:45:43.309Z,69.80
2017-12-03T07:48:10.819Z,70.40
2017-12-03T07:50:38.323Z,70.70
2017-12-03T07:53:05.846Z,70.50
2017-12-03T07:55:33.350Z,70.10
2017-12-03T07:58:00.887Z,70.50
2017-12-03T08:00:28.394Z,70.50
2017-12-03T08:02:56.667Z,70.30
2017-12-03T08:05:24.958Z,70.30
2017-12-03T08:07:52.464Z,70.30
2017-12-03T08:10:19.995Z,70.40
2017-12-03T08:12:47.500Z,70.70
2017-12-03T08:15:15.026Z,70.50
2017-12-03T08:17:42.527Z,70.30
2017-12-03T08:20:10.035Z,70.90
2017-12-03T08:22:38.415Z,70.40
2017-12-03T08:25:05.918Z,70.80
2017-12-03T08:27:33.441Z,71.30
2017-12-03T08:30:00.943Z,71.10
2017-12-03T08:32:29.239Z,71.50
2017-12-03T08:34:56.746Z,71.50
2017-12-03T08:37:24.250Z,75.20
2017-12-03T08:39:52.538Z,72.80
2017-12-03T08:42:20.042Z,72.70
2017-12-03T08:44:47.580Z,71.90
2017-12-03T08:47:15.080Z,71.90
2017-12-03T08:49:42.611Z,72.00
2017-12-03T08:52:10.114Z,72.10
2017-12-03T08:54:38.378Z,72.80
2017-12-03T08:57:05.904Z,72.70
2017-12-03T08:59:33.416Z,73.10
2017-12-03T09:02:01.707Z,73.60
2017-12-03T09:04:29.211Z,73.60
2017-12-03T09:06:56.738Z,73.90
2017-12-03T09:09:24.242Z,74.30
2017-12-03T09:11:51.748Z,73.90
2017-12-03T09:14:19.275Z,74.60
2017-12-03T09:16:47.542Z,74.50
2017-12-03T09:19:15.856Z,75.00
2017-12-03T09:21:43.364Z,74.90
2017-12-03T09:24:10.892Z,75.70
2017-12-03T09:26:38.399Z,76.60
2017-12-03T09:29:06.667Z,78.20
2017-12-03T09:31:34.194Z,78.20
2017-12-03T09:34:01.695Z,78.60
2017-12-03T09:36:29.994Z,79.10
2017-12-03T09:38:57.503Z,79.10
2017-12-03T09:41:25.114Z,81.20
2017-12-03T09:43:52.615Z,81.50
2017-12-03T09:46:20.141Z,81.70
2017-12-03T09:48:47.645Z,81.70
2017-12-03T09:51:15.145Z,82.70
2017-12-03T09:53:42.667Z,83.10
2017-12-03T09:56:10.171Z,83.70
2017-12-03T09:58:37.694Z,82.90
2017-12-03T10:01:05.964Z,83.60
2017-12-03T10:03:34.267Z,83.00
2017-12-03T10:06:01.775Z,83.00
2017-12-03T10:08:29.275Z,82.50
2017-12-03T10:10:57.582Z,83.80
2017-12-03T10:13:25.087Z,83.70
2017-12-03T10:15:53.404Z,84.70
2017-12-03T10:18:20.916Z,84.60
2017-12-03T10:20:48.451Z,84.70
2017-12-03T10:23:15.959Z,84.20
2017-12-03T10:25:44.252Z,84.10
2017-12-03T10:28:11.762Z,84.10
2017-12-03T10:30:39.263Z,85.40
2017-12-03T10:33:07.555Z,85.80
2017-12-03T10:35:35.059Z,85.70
2017-12-03T10:38:14.183Z,86.30
2017-12-03T10:40:41.684Z,85.80
2017-12-03T10:43:09.983Z,86.40
2017-12-03T10:45:37.486Z,86.30
2017-12-03T10:48:04.987Z,86.40
2017-12-03T10:50:32.515Z,85.10
2017-12-03T10:53:00.020Z,86.70
2017-12-03T10:55:27.547Z,86.40
2017-12-03T10:57:55.816Z,86.60
2017-12-03T11:00:26.027Z,87.10
2017-12-03T11:02:53.528Z,87.00
2017-12-03T11:05:21.057Z,86.20
2017-12-03T11:07:49.326Z,87.00
2017-12-03T11:10:17.594Z,86.90
2017-12-03T11:12:45.119Z,86.90
2017-12-03T11:15:12.620Z,87.10
2017-12-03T11:17:40.151Z,87.00
2017-12-03T11:20:07.659Z,86.40
2017-12-03T11:22:35.193Z,85.40
2017-12-03T11:25:02.695Z,85.00
2017-12-03T11:27:30.198Z,86.10
2017-12-03T11:29:57.731Z,85.40
2017-12-03T11:32:25.234Z,86.00
2017-12-03T11:34:53.527Z,85.60
2017-12-03T11:37:21.793Z,85.80
2017-12-03T11:39:50.087Z,84.80
2017-12-03T11:42:17.600Z,84.80
2017-12-03T11:44:45.125Z,85.90
2017-12-03T11:47:12.634Z,86.70
2017-12-03T11:49:40.147Z,87.20
2017-12-03T11:52:07.681Z,88.00
2017-12-03T11:54:35.258Z,87.10
2017-12-03T11:57:02.802Z,85.80
2017-12-03T11:59:30.307Z,87.00
2017-12-03T12:01:57.832Z,87.20
2017-12-03T12:04:25.338Z,86.70
2017-12-03T12:06:52.847Z,87.20
2017-12-03T12:09:20.389Z,87.10
2017-12-03T12:11:47.896Z,87.10
2017-12-03T12:14:16.187Z,86.80
2017-12-03T12:16:43.687Z,86.80
2017-12-03T12:19:11.215Z,86.50
2017-12-03T12:21:39.483Z,87.90
2017-12-03T12:24:06.978Z,87.20
2017-12-03T12:26:34.505Z,88.00
2017-12-03T12:29:02.003Z,88.90
2017-12-03T12:31:29.526Z,87.70
2017-12-03T12:33:57.793Z,88.60
2017-12-03T12:36:25.320Z,88.20
2017-12-03T12:38:52.823Z,86.70
2017-12-03T12:41:21.088Z,88.00
2017-12-03T12:43:48.610Z,87.90
2017-12-03T12:46:16.115Z,87.10
2017-12-03T12:48:44.406Z,88.50
2017-12-03T12:51:12.675Z,89.00
2017-12-03T12:53:40.968Z,88.80
2017-12-03T12:56:08.470Z,88.70
2017-12-03T12:58:35.997Z,88.50
2017-12-03T13:01:03.527Z,88.90
2017-12-03T13:03:31.795Z,88.20
2017-12-03T13:06:00.087Z,88.70
2017-12-03T13:08:28.350Z,89.70
2017-12-03T13:10:56.673Z,89.40
2017-12-03T13:13:24.170Z,89.40
2017-12-03T13:15:51.694Z,88.50
2017-12-03T13:18:19.198Z,88.90
2017-12-03T13:20:47.495Z,90.00
2017-12-03T13:23:15.758Z,90.20
2017-12-03T13:25:44.031Z,89.30
2017-12-03T13:28:12.323Z,89.20
2017-12-03T13:30:40.591Z,88.80
2017-12-03T13:33:08.885Z,89.50
2017-12-03T13:35:36.390Z,89.40
2017-12-03T13:38:03.911Z,89.80
2017-12-03T13:40:31.415Z,89.70
2017-12-03T13:42:58.919Z,89.40
2017-12-03T13:45:26.442Z,89.20
2017-12-03T13:47:53.954Z,89.40
2017-12-03T13:50:21.478Z,90.00
2017-12-03T13:52:49.752Z,90.30
2017-12-03T13:55:18.047Z,90.40
2017-12-03T13:57:45.618Z,90.30
2017-12-03T14:00:13.123Z,90.60
2017-12-03T14:02:40.651Z,90.50
2017-12-03T14:05:08.165Z,90.60
2017-12-03T14:07:36.468Z,91.00
2017-12-03T14:10:03.971Z,91.00
2017-12-03T14:12:31.495Z,90.00
2017-12-03T14:14:58.999Z,90.20
2017-12-03T14:17:27.298Z,90.60
2017-12-03T14:19:55.567Z,90.80
2017-12-03T14:22:23.866Z,90.90
2017-12-03T14:24:51.400Z,90.90
2017-12-03T14:27:19.667Z,91.00
2017-12-03T14:29:47.203Z,91.00
2017-12-03T14:32:14.707Z,91.00
2017-12-03T14:34:43.004Z,91.00
2017-12-03T14:37:10.503Z,91.00
2017-12-03T14:39:38.027Z,90.70
2017-12-03T14:42:05.535Z,91.10
2017-12-03T14:44:33.044Z,91.00
2017-12-03T14:47:00.571Z,91.00
2017-12-03T14:49:28.843Z,90.70
2017-12-03T14:51:57.146Z,90.70
2017-12-03T14:54:24.655Z,90.70
2017-12-03T14:56:52.183Z,90.60
2017-12-03T14:59:19.687Z,90.80
2017-12-03T15:01:47.194Z,90.80
2017-12-03T15:04:14.718Z,90.70
2017-12-03T15:06:42.992Z,91.20
2017-12-03T15:09:11.283Z,90.80
2017-12-03T15:11:38.787Z,90.80
2017-12-03T15:14:06.323Z,90.70
2017-12-03T15:16:33.827Z,90.90
2017-12-03T15:19:01.355Z,91.00
2017-12-03T15:21:28.899Z,91.10
2017-12-03T15:23:56.403Z,90.90
2017-12-03T15:26:23.937Z,91.10
2017-12-03T15:28:51.439Z,90.80
2017-12-03T15:31:19.726Z,90.80
2017-12-03T15:33:47.231Z,90.80
2017-12-03T15:36:14.763Z,90.90
2017-12-03T15:38:42.271Z,90.90
2017-12-03T15:41:09.775Z,90.80
2017-12-03T15:43:37.307Z,90.90
2017-12-03T15:46:05.578Z,90.70
2017-12-03T15:48:33.874Z,90.90
2017-12-03T15:51:01.375Z,90.90
2017-12-03T15:53:28.899Z,91.10
2017-12-03T15:55:56.408Z,91.20
2017-12-03T15:58:23.915Z,90.80
2017-12-03T16:00:51.443Z,90.90
2017-12-03T16:03:19.710Z,90.70
2017-12-03T16:05:47.233Z,90.40
2017-12-03T16:08:14.739Z,90.60
2017-12-03T16:10:43.006Z,90.30
2017-12-03T16:13:10.535Z,90.30
2017-12-03T16:15:38.039Z,90.70
2017-12-03T16:18:06.326Z,90.60
2017-12-03T16:20:34.606Z,90.20
2017-12-03T16:23:02.132Z,90.20
2017-12-03T16:25:29.636Z,90.30
2017-12-03T16:27:57.139Z,90.60
2017-12-03T16:30:24.662Z,90.50
2017-12-03T16:32:52.166Z,90.50
2017-12-03T16:35:19.696Z,90.80
2017-12-03T16:37:47.203Z,90.70
2017-12-03T16:40:15.473Z,91.00
2017-12-03T16:42:43.779Z,90.70
2017-12-03T16:45:11.309Z,90.70
2017-12-03T16:47:39.602Z,91.10
2017-12-03T16:50:07.111Z,91.10
2017-12-03T16:52:34.611Z,91.30
2017-12-03T16:55:02.902Z,91.30
2017-12-03T16:57:30.411Z,91.30
2017-12-03T16:59:57.938Z,91.70
2017-12-03T17:02:25.438Z,91.60
2017-12-03T17:04:52.950Z,91.50
2017-12-03T17:07:20.476Z,91.40
2017-12-03T17:09:48.747Z,91.30
2017-12-03T17:12:17.036Z,91.30
2017-12-03T17:14:45.303Z,91.30
2017-12-03T17:17:13.594Z,91.60
2017-12-03T17:19:41.099Z,91.50
2017-12-03T17:22:08.602Z,91.50
2017-12-03T17:24:36.894Z,91.50
2017-12-03T17:27:04.407Z,91.50
2017-12-03T17:29:31.939Z,91.50
2017-12-03T17:31:59.448Z,91.70
2017-12-03T17:34:27.715Z,91.80
2017-12-03T17:36:55.248Z,92.10
2017-12-03T17:39:22.751Z,91.40
2017-12-03T17:41:51.048Z,91.50
2017-12-03T17:44:18.555Z,91.50
2017-12-03T17:46:46.082Z,91.40
2017-12-03T17:49:13.584Z,91.30
2017-12-03T17:51:41.090Z,91.50
2017-12-03T17:54:08.624Z,92.40
2017-12-03T17:56:36.127Z,91.90
2017-12-03T17:59:03.664Z,91.60
2017-12-03T18:01:31.167Z,91.40
2017-12-03T18:03:58.666Z,91.50
2017-12-03T18:06:26.205Z,91.60
2017-12-03T18:08:54.481Z,91.60
2017-12-03T18:11:22.779Z,91.50
2017-12-03T18:13:50.312Z,91.40
2017-12-03T18:16:18.614Z,91.10
2017-12-03T18:18:46.115Z,91.10
2017-12-03T18:21:13.614Z,91.20
2017-12-03T18:23:41.902Z,91.70
2017-12-03T18:26:09.403Z,91.70
2017-12-03T18:28:36.936Z,91.90
2017-12-03T18:31:04.450Z,92.30
2017-12-03T18:33:31.984Z,91.90
2017-12-03T18:35:59.496Z,91.90
2017-12-03T18:38:27.002Z,92.00
2017-12-03T18:40:54.532Z,91.80
2017-12-03T18:43:22.043Z,92.00
2017-12-03T18:45:49.575Z,92.10
2017-12-03T18:48:17.078Z,91.90
2017-12-03T18:50:45.371Z,92.00
2017-12-03T18:53:12.879Z,92.00
2017-12-03T18:55:40.383Z,91.90
2017-12-03T18:58:07.906Z,91.80
2017-12-03T19:00:35.418Z,91.80
2017-12-03T19:03:02.947Z,91.90
2017-12-03T19:05:31.214Z,92.00
2017-12-03T19:07:59.483Z,91.70
2017-12-03T19:10:27.011Z,91.70
2017-12-03T19:12:54.515Z,92.20
2017-12-03T19:15:22.807Z,91.90
2017-12-03T19:17:50.322Z,91.90
2017-12-03T19:20:18.630Z,91.80
2017-12-03T19:22:46.915Z,92.40
2017-12-03T19:25:14.415Z,92.40
2017-12-03T19:27:41.946Z,92.10
2017-12-03T19:30:09.455Z,92.00
2017-12-03T19:32:36.983Z,91.60
2017-12-03T19:35:04.483Z,91.80
2017-12-03T19:37:32.755Z,91.80
2017-12-03T19:40:00.279Z,91.80
2017-12-03T19:42:27.788Z,92.30
2017-12-03T19:44:56.079Z,91.60
2017-12-03T19:47:23.578Z,91.50
2017-12-03T19:49:51.113Z,91.30
2017-12-03T19:52:18.617Z,91.40
2017-12-03T19:54:46.124Z,91.40
2017-12-03T19:57:13.647Z,91.20
2017-12-03T19:59:41.915Z,91.10
2017-12-03T20:02:10.214Z,91.20
2017-12-03T20:04:38.483Z,90.80
2017-12-03T20:07:06.758Z,91.10
2017-12-03T20:09:35.051Z,91.10
2017-12-03T20:12:02.550Z,91.10
2017-12-03T20:14:30.075Z,91.30
2017-12-03T20:16:57.582Z,90.90
2017-12-03T20:19:25.094Z,90.90
2017-12-03T20:21:52.618Z,90.90
2017-12-03T20:24:20.887Z,91.40
2017-12-03T20:26:48.414Z,91.00
2017-12-03T20:29:15.918Z,91.00
2017-12-03T20:31:44.209Z,90.90
2017-12-03T20:34:11.711Z,90.90
2017-12-03T20:36:39.244Z,90.90
2017-12-03T20:39:06.754Z,90.80
2017-12-03T20:41:34.255Z,90.90
2017-12-03T20:44:01.776Z,90.80
2017-12-03T20:46:29.278Z,90.80
2017-12-03T20:48:56.798Z,91.20
2017-12-03T20:51:25.062Z,91.30
2017-12-03T20:53:52.586Z,90.90
2017-12-03T20:56:20.083Z,91.00
2017-12-03T20:58:47.591Z,91.00
2017-12-03T21:01:15.110Z,91.00
2017-12-03T21:03:43.374Z,91.00
2017-12-03T21:06:10.903Z,91.00
2017-12-03T21:08:38.403Z,91.00
2017-12-03T21:11:06.690Z,91.30
2017-12-03T21:13:34.954Z,91.30
2017-12-03T21:16:03.226Z,91.30
2017-12-03T21:18:30.752Z,91.30
2017-12-03T21:20:58.246Z,91.80
2017-12-03T21:23:26.534Z,91.50
2017-12-03T21:25:54.799Z,91.30
2017-12-03T21:28:23.087Z,91.70
2017-12-03T21:30:51.359Z,91.30
2017-12-03T21:33:19.620Z,91.30
2017-12-03T21:35:47.142Z,91.20
2017-12-03T21:38:14.644Z,91.70
2017-12-03T21:40:42.934Z,91.90
2017-12-03T21:43:11.202Z,91.70
2017-12-03T21:45:39.490Z,91.60
2017-12-03T21:48:07.763Z,92.20
2017-12-03T21:50:36.051Z,92.10
2017-12-03T21:53:03.550Z,92.10
2017-12-03T21:55:31.054Z,91.50
2017-12-03T21:57:59.339Z,91.40
2017-12-03T22:00:27.613Z,91.40
2017-12-03T22:02:55.903Z,91.80
2017-12-03T22:05:23.406Z,91.40
2017-12-03T22:07:50.930Z,91.30
2017-12-03T22:10:18.431Z,91.60
2017-12-03T22:12:45.951Z,91.70
2017-12-03T22:15:13.446Z,91.60
2017-12-03T22:17:40.966Z,91.70
2017-12-03T22:20:08.467Z,91.50
2017-12-03T22:22:36.019Z,91.50
2017-12-03T22:25:03.549Z,91.40
2017-12-03T22:27:31.079Z,91.50
2017-12-03T22:29:58.603Z,91.40
2017-12-03T22:32:26.112Z,91.40
2017-12-03T22:34:53.639Z,91.40
2017-12-03T22:37:21.903Z,91.30
2017-12-03T22:39:50.187Z,91.50
2017-12-03T22:42:18.474Z,91.50
2017-12-03T22:44:46.739Z,91.40
2017-12-03T22:47:15.071Z,91.90
2017-12-03T22:49:42.575Z,91.80
2017-12-03T22:52:10.862Z,92.00
2017-12-03T22:54:39.138Z,91.40
2017-12-03T22:57:07.407Z,91.30
2017-12-03T22:59:35.694Z,91.30
2017-12-03T23:02:03.959Z,91.30
2017-12-03T23:04:32.342Z,91.50
2017-12-03T23:07:00.614Z,91.30
2017-12-03T23:09:28.906Z,91.40
2017-12-03T23:11:57.171Z,91.50
2017-12-03T23:14:25.439Z,91.40
2017-12-03T23:16:53.731Z,91.60
2017-12-03T23:19:22.003Z,91.50
2017-12-03T23:21:50.294Z,91.50
2017-12-03T23:24:17.812Z,91.50
2017-12-03T23:26:45.316Z,91.20
2017-12-03T23:29:12.868Z,91.50
2017-12-03T23:31:40.371Z,91.40
2017-12-03T23:34:07.901Z,91.60
2017-12-03T23:36:35.403Z,91.40
2017-12-03T23:39:02.903Z,91.40
2017-12-03T23:41:30.423Z,91.50
2017-12-03T23:43:57.927Z,91.50
2017-12-03T23:46:25.451Z,91.40
2017-12-03T23:48:52.951Z,91.50
2017-12-03T23:51:20.453Z,91.50
2017-12-03T23:53:47.974Z,91.50
2017-12-03T23:56:15.475Z,91.50
2017-12-03T23:58:43.002Z,91.50
